MSC Alexa — 3FPP6 — position and weather

sailwx.info

Track history (hours):
 
Tides and Currents Weather Stations Pressure Air Temp Water Temp Dewpoint Dewpoint Depression Visibility Wind Speed Wind Dir Waves Ship Positions

MSC Alexa

Last reported at 2014-Sep-13 07:28 UTC. Time now 2014-Sep-30 15:56 UTC.
Position N 49°44' W 000°47'.
Warning: this ship's position is 17 days out of date.

Length 243 m; draft 12.1 m.

Type: Ship (hazmat cat D). MMSI: 356904000.

Date/timePositionNaut miles runAvg speedWind from/ knotsBaromVisibWave heightAir tempDewpointWater temp
2014-Sep-13 07:28N 49°44' W 000°47'1617.1
2014-Sep-13 06:33N 49°37' W 000°26'1616.0
2014-Sep-13 05:33N 49°31' W 000°03'8 8.4
2014-Sep-13 04:33N 49°28' E 000°09'0 0.0
2014-Sep-13 03:33N 49°28' E 000°09'0 0.0
2014-Sep-13 02:29N 49°28' E 000°09'0 0.0
2014-Sep-13 01:32N 49°28' E 000°09'0 0.0
2014-Sep-13 00:31N 49°28' E 000°09'0 0.0
2014-Sep-12 23:31N 49°28' E 000°09'0 0.0
2014-Sep-12 22:28N 49°28' E 000°09'0 0.0
2014-Sep-12 21:33N 49°28' E 000°09'0 0.0
2014-Sep-12 20:33N 49°28' E 000°09'0 0.0
2014-Sep-12 19:26N 49°28' E 000°09'0 0.0
2014-Sep-12 18:32N 49°28' E 000°09'0 0.0
2014-Sep-12 17:31N 49°28' E 000°09'0 0.0
2014-Sep-12 16:31N 49°28' E 000°09'0 0.0
2014-Sep-12 15:31N 49°28' E 000°09'2 2.3
2014-Sep-12 14:33N 49°28' E 000°06'1212.3
2014-Sep-12 13:33N 49°34' W 000°11'2 2.3
2014-Sep-12 12:33N 49°36' W 000°12'0 0.1
2014-Sep-12 11:33N 49°36' W 000°12'0 0.0
2014-Sep-12 10:33N 49°36' W 000°12'0 0.1
2014-Sep-12 09:33N 49°36' W 000°12'0 0.1
2014-Sep-12 08:33N 49°36' W 000°12'0 0.2
2014-Sep-12 07:33N 49°36' W 000°13'5 5.1
2014-Sep-12 06:33N 49°38' W 000°20'5116.5
2014-Sep-12 03:27N 50°27' W 000°02'1617.7
2014-Sep-12 02:33N 50°34' E 000°21'1616.5
2014-Sep-12 01:34N 50°41' E 000°45'2215.1
2014-Sep-12 00:06N 50°55' E 001°11'815.1
2014-Sep-11 23:33N 51°01' E 001°20'1817.9
2014-Sep-11 22:33N 51°12' E 001°43'1818.3
2014-Sep-11 21:33N 51°29' E 001°52'1817.6
2014-Sep-11 20:33N 51°46' E 001°44'1212.5
2014-Sep-11 19:33N 51°56' E 001°32'8 8.1
2014-Sep-11 18:33N 51°57' E 001°19'0 0.0
2014-Sep-11 17:33N 51°57' E 001°19'0 0.0
2014-Sep-11 16:32N 51°57' E 001°19'0 0.0
2014-Sep-11 15:32N 51°57' E 001°19'0 0.0
2014-Sep-11 14:32N 51°57' E 001°19'0 0.0
2014-Sep-11 13:31N 51°57' E 001°19'0 0.0
2014-Sep-11 12:31N 51°57' E 001°19'0 0.0
2014-Sep-11 11:33N 51°57' E 001°19'0 0.0
2014-Sep-11 10:33N 51°57' E 001°19'0 0.0
2014-Sep-11 09:32N 51°57' E 001°19'0 0.0
2014-Sep-11 08:32N 51°57' E 001°19'0 0.0
2014-Sep-11 07:31N 51°57' E 001°19'0 0.2
2014-Sep-11 06:34N 51°57' E 001°19'7 7.3
2014-Sep-11 05:34N 51°56' E 001°31'10 9.6
2014-Sep-11 04:34N 51°52' E 001°44'4 4.2
2014-Sep-11 03:34N 51°48' E 001°48'1111.2
2014-Sep-11 02:33N 51°37' E 001°50'1414.0
2014-Sep-11 01:33N 51°26' E 002°02'1313.0
2014-Sep-11 00:33N 51°22' E 002°22'1711.7
2014-Sep-10 23:04N 51°22' E 002°50'916.9
2014-Sep-10 22:33N 51°24' E 003°04'1616.4
2014-Sep-10 21:34N 51°25' E 003°30'1111.1
2014-Sep-10 20:33N 51°21' E 003°47'1111.1
2014-Sep-10 19:34N 51°22' E 004°04'8 8.3
2014-Sep-10 18:33N 51°21' E 004°17'0 0.5
2014-Sep-10 17:32N 51°20' E 004°18'2 1.7
2014-Sep-10 16:32N 51°20' E 004°20'0 0.0
2014-Sep-10 15:20N 51°20' E 004°20'0 0.0
2014-Sep-10 14:28N 51°20' E 004°20'0 0.0
2014-Sep-10 13:28N 51°20' E 004°20'0 0.0
2014-Sep-10 12:32N 51°20' E 004°20'0 0.0
2014-Sep-10 11:32N 51°20' E 004°20'0 0.0
2014-Sep-10 10:26N 51°20' E 004°20'0 0.0
2014-Sep-10 09:31N 51°20' E 004°20'0 0.0
2014-Sep-10 08:31N 51°20' E 004°20'0 0.0
2014-Sep-10 07:27N 51°20' E 004°20'0 0.0
2014-Sep-10 06:24N 51°20' E 004°20'0 0.0
2014-Sep-10 05:30N 51°20' E 004°20'0 0.0
2014-Sep-10 04:33N 51°20' E 004°20'0 0.0
2014-Sep-10 03:33N 51°20' E 004°20'0 0.0
2014-Sep-10 02:33N 51°20' E 004°20'0 0.0
2014-Sep-10 01:33N 51°20' E 004°20'0 0.0
2014-Sep-10 00:34N 51°20' E 004°20'0 0.0
2014-Sep-09 23:32N 51°20' E 004°20'0 0.0
2014-Sep-09 22:33N 51°20' E 004°20'0 0.0
2014-Sep-09 21:34N 51°20' E 004°20'0 0.0
2014-Sep-09 20:34N 51°20' E 004°20'0 0.0
2014-Sep-09 19:34N 51°20' E 004°20'0 0.0
2014-Sep-09 18:33N 51°20' E 004°20'0 0.0
2014-Sep-09 17:33N 51°20' E 004°20'0 0.0
2014-Sep-09 16:34N 51°20' E 004°20'0 0.0
2014-Sep-09 15:33N 51°20' E 004°20'0 0.0
2014-Sep-09 14:33N 51°20' E 004°20'0 0.0
2014-Sep-09 13:34N 51°20' E 004°20'2 2.3
2014-Sep-09 12:33N 51°21' E 004°17'0 0.1
2014-Sep-09 11:33N 51°21' E 004°17'2 2.0
2014-Sep-09 10:34N 51°21' E 004°14'9 9.5
2014-Sep-09 09:34N 51°26' E 004°01'1010.2
2014-Sep-09 08:33N 51°22' E 003°46'8 8.5
2014-Sep-09 07:33N 51°25' E 003°34'1312.7
2014-Sep-09 06:33N 51°24' E 003°13'9 8.6
2014-Sep-09 05:34N 51°31' E 003°05'1514.5
2014-Sep-09 04:33N 51°45' E 003°13'5 1.6
2014-Sep-09 01:30N 51°50' E 003°14'31 9.1
2014-Sep-08 22:09N 52°20' E 003°25'39413.6
2014-Sep-07 17:11N 57°43' E 009°58'813.5
2014-Sep-07 16:34N 57°45' E 010°13'1414.2
2014-Sep-07 15:34N 57°49' E 010°39'1413.7
2014-Sep-07 14:33N 57°42' E 011°00'1515.1
2014-Sep-07 13:34N 57°31' E 011°21'1515.2
2014-Sep-07 12:33N 57°17' E 011°33'1515.3
2014-Sep-07 11:33N 57°03' E 011°42'1515.4
2014-Sep-07 10:33N 56°48' E 011°51'1414.3
2014-Sep-07 09:33N 56°35' E 011°42'7715.2
2014-Sep-07 04:32N 55°22' E 011°02'1414.7
2014-Sep-07 03:33N 55°08' E 011°03'1715.2
2014-Sep-07 02:27N 54°52' E 010°53'1213.5
2014-Sep-07 01:33N 54°40' E 010°58'1615.6
2014-Sep-07 00:33N 54°33' E 011°21'1615.6
2014-Sep-06 23:33N 54°26' E 011°46'1515.1
2014-Sep-06 22:33N 54°28' E 012°12'1414.5
2014-Sep-06 21:33N 54°40' E 012°26'1515.2
2014-Sep-06 20:33N 54°48' E 012°48'1514.7
2014-Sep-06 19:33N 54°54' E 013°11'1515.0
2014-Sep-06 18:33N 54°59' E 013°36'1515.1
2014-Sep-06 17:33N 55°04' E 014°00'1514.8
2014-Sep-06 16:33N 55°15' E 014°18'1515.0
2014-Sep-06 15:33N 55°26' E 014°35'1514.9
2014-Sep-06 14:34N 55°33' E 014°58'1514.7
2014-Sep-06 13:34N 55°39' E 015°22'1514.5
2014-Sep-06 12:33N 55°43' E 015°47'1414.5
2014-Sep-06 11:34N 55°46' E 016°12'1414.4
2014-Sep-06 10:34N 55°50' E 016°37'1414.5
2014-Sep-06 09:34N 55°53' E 017°02'1414.4
2014-Sep-06 08:33N 55°57' E 017°27'1414.3
2014-Sep-06 07:33N 56°02' E 017°51'1414.3
2014-Sep-06 06:33N 56°09' E 018°13'1414.3
2014-Sep-06 05:33N 56°17' E 018°35'1414.0
2014-Sep-06 04:33N 56°27' E 018°52'1414.3
2014-Sep-06 03:33N 56°40' E 019°04'1414.3
2014-Sep-06 02:33N 56°53' E 019°17'1514.4
2014-Sep-06 01:30N 57°06' E 019°30'1414.7
2014-Sep-06 00:33N 57°18' E 019°42'4314.5
2014-Sep-05 21:33N 57°57' E 020°17'1614.6
2014-Sep-05 20:28N 58°11' E 020°31'9814.2
2014-Sep-05 13:33N 59°29' E 022°28'1414.3
2014-Sep-05 12:33N 59°34' E 022°55'1514.5
2014-Sep-05 11:33N 59°38' E 023°22'1414.4
2014-Sep-05 10:33N 59°42' E 023°50'1915.4
2014-Sep-05 09:21N 59°48' E 024°25'3015.7
2014-Sep-05 07:27N 59°53' E 025°23'1415.6
2014-Sep-05 06:33N 59°56' E 025°50'1515.4
2014-Sep-05 05:33N 59°60' E 026°20'1515.0
2014-Sep-05 04:33N 60°00' E 026°50'1514.5
2014-Sep-05 03:33N 60°04' E 027°18'7912.7
2014-Sep-04 21:17N 59°56' E 029°56'810.2
2014-Sep-04 20:33N 59°53' E 030°10'1 0.4
2014-Sep-04 17:17N 59°52' E 030°12'0 0.0
2014-Sep-04 15:19N 59°52' E 030°12'  
Track history (hours):
 
Tides and Currents Weather Stations Pressure Air Temp Water Temp Dewpoint Dewpoint Depression Visibility Wind Speed Wind Dir Waves Ship Positions

MSC Alexa

Last reported at 2014-Sep-13 07:28 UTC. Time now 2014-Sep-30 15:56 UTC.
Position N 49°44' W 000°47'.
Warning: this ship's position is 17 days out of date.

Length 243 m; draft 12.1 m.

Type: Ship (hazmat cat D). MMSI: 356904000.

Date/timePositionNaut miles runAvg speedWind from/ knotsBaromVisibWave heightAir tempDewpointWater temp
2014-Sep-13 07:28N 49°44' W 000°47'1617.1
2014-Sep-13 06:33N 49°37' W 000°26'1616.0
2014-Sep-13 05:33N 49°31' W 000°03'8 8.4
2014-Sep-13 04:33N 49°28' E 000°09'0 0.0
2014-Sep-13 03:33N 49°28' E 000°09'0 0.0
2014-Sep-13 02:29N 49°28' E 000°09'0 0.0
2014-Sep-13 01:32N 49°28' E 000°09'0 0.0
2014-Sep-13 00:31N 49°28' E 000°09'0 0.0
2014-Sep-12 23:31N 49°28' E 000°09'0 0.0
2014-Sep-12 22:28N 49°28' E 000°09'0 0.0
2014-Sep-12 21:33N 49°28' E 000°09'0 0.0
2014-Sep-12 20:33N 49°28' E 000°09'0 0.0
2014-Sep-12 19:26N 49°28' E 000°09'0 0.0
2014-Sep-12 18:32N 49°28' E 000°09'0 0.0
2014-Sep-12 17:31N 49°28' E 000°09'0 0.0
2014-Sep-12 16:31N 49°28' E 000°09'0 0.0
2014-Sep-12 15:31N 49°28' E 000°09'2 2.3
2014-Sep-12 14:33N 49°28' E 000°06'1212.3
2014-Sep-12 13:33N 49°34' W 000°11'2 2.3
2014-Sep-12 12:33N 49°36' W 000°12'0 0.1
2014-Sep-12 11:33N 49°36' W 000°12'0 0.0
2014-Sep-12 10:33N 49°36' W 000°12'0 0.1
2014-Sep-12 09:33N 49°36' W 000°12'0 0.1
2014-Sep-12 08:33N 49°36' W 000°12'0 0.2
2014-Sep-12 07:33N 49°36' W 000°13'5 5.1
2014-Sep-12 06:33N 49°38' W 000°20'5116.5
2014-Sep-12 03:27N 50°27' W 000°02'1617.7
2014-Sep-12 02:33N 50°34' E 000°21'1616.5
2014-Sep-12 01:34N 50°41' E 000°45'2215.1
2014-Sep-12 00:06N 50°55' E 001°11'815.1
2014-Sep-11 23:33N 51°01' E 001°20'1817.9
2014-Sep-11 22:33N 51°12' E 001°43'1818.3
2014-Sep-11 21:33N 51°29' E 001°52'1817.6
2014-Sep-11 20:33N 51°46' E 001°44'1212.5
2014-Sep-11 19:33N 51°56' E 001°32'8 8.1
2014-Sep-11 18:33N 51°57' E 001°19'0 0.0
2014-Sep-11 17:33N 51°57' E 001°19'0 0.0
2014-Sep-11 16:32N 51°57' E 001°19'0 0.0
2014-Sep-11 15:32N 51°57' E 001°19'0 0.0
2014-Sep-11 14:32N 51°57' E 001°19'0 0.0
2014-Sep-11 13:31N 51°57' E 001°19'0 0.0
2014-Sep-11 12:31N 51°57' E 001°19'0 0.0
2014-Sep-11 11:33N 51°57' E 001°19'0 0.0
2014-Sep-11 10:33N 51°57' E 001°19'0 0.0
2014-Sep-11 09:32N 51°57' E 001°19'0 0.0
2014-Sep-11 08:32N 51°57' E 001°19'0 0.0
2014-Sep-11 07:31N 51°57' E 001°19'0 0.2
2014-Sep-11 06:34N 51°57' E 001°19'7 7.3
2014-Sep-11 05:34N 51°56' E 001°31'10 9.6
2014-Sep-11 04:34N 51°52' E 001°44'4 4.2
2014-Sep-11 03:34N 51°48' E 001°48'1111.2
2014-Sep-11 02:33N 51°37' E 001°50'1414.0
2014-Sep-11 01:33N 51°26' E 002°02'1313.0
2014-Sep-11 00:33N 51°22' E 002°22'1711.7
2014-Sep-10 23:04N 51°22' E 002°50'916.9
2014-Sep-10 22:33N 51°24' E 003°04'1616.4
2014-Sep-10 21:34N 51°25' E 003°30'1111.1
2014-Sep-10 20:33N 51°21' E 003°47'1111.1
2014-Sep-10 19:34N 51°22' E 004°04'8 8.3
2014-Sep-10 18:33N 51°21' E 004°17'0 0.5
2014-Sep-10 17:32N 51°20' E 004°18'2 1.7
2014-Sep-10 16:32N 51°20' E 004°20'0 0.0
2014-Sep-10 15:20N 51°20' E 004°20'0 0.0
2014-Sep-10 14:28N 51°20' E 004°20'0 0.0
2014-Sep-10 13:28N 51°20' E 004°20'0 0.0
2014-Sep-10 12:32N 51°20' E 004°20'0 0.0
2014-Sep-10 11:32N 51°20' E 004°20'0 0.0
2014-Sep-10 10:26N 51°20' E 004°20'0 0.0
2014-Sep-10 09:31N 51°20' E 004°20'0 0.0
2014-Sep-10 08:31N 51°20' E 004°20'0 0.0
2014-Sep-10 07:27N 51°20' E 004°20'0 0.0
2014-Sep-10 06:24N 51°20' E 004°20'0 0.0
2014-Sep-10 05:30N 51°20' E 004°20'0 0.0
2014-Sep-10 04:33N 51°20' E 004°20'0 0.0
2014-Sep-10 03:33N 51°20' E 004°20'0 0.0
2014-Sep-10 02:33N 51°20' E 004°20'0 0.0
2014-Sep-10 01:33N 51°20' E 004°20'0 0.0
2014-Sep-10 00:34N 51°20' E 004°20'0 0.0
2014-Sep-09 23:32N 51°20' E 004°20'0 0.0
2014-Sep-09 22:33N 51°20' E 004°20'0 0.0
2014-Sep-09 21:34N 51°20' E 004°20'0 0.0
2014-Sep-09 20:34N 51°20' E 004°20'0 0.0
2014-Sep-09 19:34N 51°20' E 004°20'0 0.0
2014-Sep-09 18:33N 51°20' E 004°20'0 0.0
2014-Sep-09 17:33N 51°20' E 004°20'0 0.0
2014-Sep-09 16:34N 51°20' E 004°20'0 0.0
2014-Sep-09 15:33N 51°20' E 004°20'0 0.0
2014-Sep-09 14:33N 51°20' E 004°20'0 0.0
2014-Sep-09 13:34N 51°20' E 004°20'2 2.3
2014-Sep-09 12:33N 51°21' E 004°17'0 0.1
2014-Sep-09 11:33N 51°21' E 004°17'2 2.0
2014-Sep-09 10:34N 51°21' E 004°14'9 9.5
2014-Sep-09 09:34N 51°26' E 004°01'1010.2
2014-Sep-09 08:33N 51°22' E 003°46'8 8.5
2014-Sep-09 07:33N 51°25' E 003°34'1312.7
2014-Sep-09 06:33N 51°24' E 003°13'9 8.6
2014-Sep-09 05:34N 51°31' E 003°05'1514.5
2014-Sep-09 04:33N 51°45' E 003°13'5 1.6
2014-Sep-09 01:30N 51°50' E 003°14'31 9.1
2014-Sep-08 22:09N 52°20' E 003°25'39413.6
2014-Sep-07 17:11N 57°43' E 009°58'813.5
2014-Sep-07 16:34N 57°45' E 010°13'1414.2
2014-Sep-07 15:34N 57°49' E 010°39'1413.7
2014-Sep-07 14:33N 57°42' E 011°00'1515.1
2014-Sep-07 13:34N 57°31' E 011°21'1515.2
2014-Sep-07 12:33N 57°17' E 011°33'1515.3
2014-Sep-07 11:33N 57°03' E 011°42'1515.4
2014-Sep-07 10:33N 56°48' E 011°51'1414.3
2014-Sep-07 09:33N 56°35' E 011°42'7715.2
2014-Sep-07 04:32N 55°22' E 011°02'1414.7
2014-Sep-07 03:33N 55°08' E 011°03'1715.2
2014-Sep-07 02:27N 54°52' E 010°53'1213.5
2014-Sep-07 01:33N 54°40' E 010°58'1615.6
2014-Sep-07 00:33N 54°33' E 011°21'1615.6
2014-Sep-06 23:33N 54°26' E 011°46'1515.1
2014-Sep-06 22:33N 54°28' E 012°12'1414.5
2014-Sep-06 21:33N 54°40' E 012°26'1515.2
2014-Sep-06 20:33N 54°48' E 012°48'1514.7
2014-Sep-06 19:33N 54°54' E 013°11'1515.0
2014-Sep-06 18:33N 54°59' E 013°36'1515.1
2014-Sep-06 17:33N 55°04' E 014°00'1514.8
2014-Sep-06 16:33N 55°15' E 014°18'1515.0
2014-Sep-06 15:33N 55°26' E 014°35'1514.9
2014-Sep-06 14:34N 55°33' E 014°58'1514.7
2014-Sep-06 13:34N 55°39' E 015°22'1514.5
2014-Sep-06 12:33N 55°43' E 015°47'1414.5
2014-Sep-06 11:34N 55°46' E 016°12'1414.4
2014-Sep-06 10:34N 55°50' E 016°37'1414.5
2014-Sep-06 09:34N 55°53' E 017°02'1414.4
2014-Sep-06 08:33N 55°57' E 017°27'1414.3
2014-Sep-06 07:33N 56°02' E 017°51'1414.3
2014-Sep-06 06:33N 56°09' E 018°13'1414.3
2014-Sep-06 05:33N 56°17' E 018°35'1414.0
2014-Sep-06 04:33N 56°27' E 018°52'1414.3
2014-Sep-06 03:33N 56°40' E 019°04'1414.3
2014-Sep-06 02:33N 56°53' E 019°17'1514.4
2014-Sep-06 01:30N 57°06' E 019°30'1414.7
2014-Sep-06 00:33N 57°18' E 019°42'4314.5
2014-Sep-05 21:33N 57°57' E 020°17'1614.6
2014-Sep-05 20:28N 58°11' E 020°31'9814.2
2014-Sep-05 13:33N 59°29' E 022°28'1414.3
2014-Sep-05 12:33N 59°34' E 022°55'1514.5
2014-Sep-05 11:33N 59°38' E 023°22'1414.4
2014-Sep-05 10:33N 59°42' E 023°50'1915.4
2014-Sep-05 09:21N 59°48' E 024°25'3015.7
2014-Sep-05 07:27N 59°53' E 025°23'1415.6
2014-Sep-05 06:33N 59°56' E 025°50'1515.4
2014-Sep-05 05:33N 59°60' E 026°20'1515.0
2014-Sep-05 04:33N 60°00' E 026°50'1514.5
2014-Sep-05 03:33N 60°04' E 027°18'7912.7
2014-Sep-04 21:17N 59°56' E 029°56'810.2
2014-Sep-04 20:33N 59°53' E 030°10'1 0.4
2014-Sep-04 17:17N 59°52' E 030°12'0 0.0
2014-Sep-04 15:19N 59°52' E 030°12'  

Dump ship's entire track history